createdAt,value
2017-03-27T00:00:09.804Z,946.1
2017-03-27T00:01:18.205Z,946.1
2017-03-27T00:02:26.622Z,946.1
2017-03-27T00:03:34.224Z,946.1
2017-03-27T00:04:42.616Z,946.0
2017-03-27T00:05:50.394Z,946.0
2017-03-27T00:06:58.460Z,945.9
2017-03-27T00:08:06.542Z,946.0
2017-03-27T00:09:14.785Z,946.0
2017-03-27T00:10:22.950Z,946.0
2017-03-27T00:11:31.383Z,946.1
2017-03-27T00:12:38.785Z,946.0
2017-03-27T00:13:47.014Z,946.0
2017-03-27T00:14:54.957Z,945.9
2017-03-27T00:16:03.642Z,945.8
2017-03-27T00:17:11.157Z,945.8
2017-03-27T00:18:19.280Z,945.9
2017-03-27T00:19:27.403Z,945.9
2017-03-27T00:20:35.399Z,945.9
2017-03-27T00:21:43.543Z,945.9
2017-03-27T00:22:51.573Z,945.8
2017-03-27T00:23:59.665Z,945.8
2017-03-27T00:25:07.749Z,945.8
2017-03-27T00:26:15.840Z,945.8
2017-03-27T00:27:23.989Z,945.8
2017-03-27T00:28:32.019Z,945.8
2017-03-27T00:29:40.114Z,945.8
2017-03-27T00:30:48.270Z,945.7
2017-03-27T00:31:56.286Z,945.8
2017-03-27T00:33:04.879Z,945.8
2017-03-27T00:34:12.585Z,945.8
2017-03-27T00:35:20.758Z,945.8
2017-03-27T00:36:28.644Z,945.8
2017-03-27T00:37:36.725Z,945.8
2017-03-27T00:38:44.876Z,945.8
2017-03-27T00:39:52.904Z,945.7
2017-03-27T00:41:00.991Z,945.7
2017-03-27T00:42:09.162Z,945.7
2017-03-27T00:43:17.165Z,945.7
2017-03-27T00:44:25.309Z,945.7
2017-03-27T00:45:33.333Z,945.7
2017-03-27T00:46:41.422Z,945.7
2017-03-27T00:47:49.511Z,945.6
2017-03-27T00:48:57.610Z,945.6
2017-03-27T00:50:06.198Z,945.6
2017-03-27T00:51:13.785Z,945.6
2017-03-27T00:52:21.925Z,945.6
2017-03-27T00:53:29.958Z,945.6
2017-03-27T00:54:38.038Z,945.5
2017-03-27T00:55:46.636Z,945.5
2017-03-27T00:56:54.220Z,945.5
2017-03-27T00:58:02.304Z,945.5
2017-03-27T00:59:10.398Z,945.5
2017-03-27T01:00:18.483Z,945.5
2017-03-27T01:01:26.626Z,945.5
2017-03-27T01:02:34.664Z,945.5
2017-03-27T01:03:42.778Z,945.5
2017-03-27T01:04:50.841Z,945.5
2017-03-27T01:05:58.983Z,945.5
2017-03-27T01:07:07.518Z,945.5
2017-03-27T01:08:15.261Z,945.5
2017-03-27T01:09:23.186Z,945.5
2017-03-27T01:10:31.278Z,945.5
2017-03-27T01:11:39.370Z,945.4
2017-03-27T01:12:47.509Z,945.5
2017-03-27T01:13:55.535Z,945.4
2017-03-27T01:15:03.624Z,945.4
2017-03-27T01:16:11.711Z,945.4
2017-03-27T01:17:19.808Z,945.5
2017-03-27T01:18:28.047Z,945.4
2017-03-27T01:19:36.059Z,945.4
2017-03-27T01:20:44.068Z,945.4
2017-03-27T01:21:52.661Z,945.4
2017-03-27T01:23:00.245Z,945.4
2017-03-27T01:24:08.450Z,945.5
2017-03-27T01:25:16.412Z,945.4
2017-03-27T01:26:24.506Z,945.3
2017-03-27T01:27:32.593Z,945.4
2017-03-27T01:28:40.682Z,945.4
2017-03-27T01:29:48.926Z,945.4
2017-03-27T01:30:56.856Z,945.3
2017-03-27T01:32:04.943Z,945.3
2017-03-27T01:33:13.023Z,945.3
2017-03-27T01:34:21.113Z,945.3
2017-03-27T01:35:29.256Z,945.3
2017-03-27T01:36:37.289Z,945.3
2017-03-27T01:37:45.890Z,945.3
2017-03-27T01:38:53.464Z,945.3
2017-03-27T01:40:01.564Z,945.2
2017-03-27T01:41:09.807Z,945.3
2017-03-27T01:42:17.746Z,945.2
2017-03-27T01:43:25.814Z,945.2
2017-03-27T01:44:33.905Z,945.2
2017-03-27T01:44:33.917Z,945.2
2017-03-27T01:45:41.977Z,945.2
2017-03-27T01:46:50.126Z,945.2
2017-03-27T01:47:58.156Z,945.2
2017-03-27T01:49:06.241Z,945.2
2017-03-27T01:50:14.332Z,945.2
2017-03-27T01:51:22.433Z,945.3
2017-03-27T01:52:30.565Z,945.2
2017-03-27T01:53:38.653Z,945.2
2017-03-27T01:54:46.679Z,945.2
2017-03-27T01:55:54.764Z,945.2
2017-03-27T01:57:02.857Z,945.2
2017-03-27T01:58:11.463Z,945.2
2017-03-27T01:59:19.022Z,945.2
2017-03-27T02:00:27.106Z,945.2
2017-03-27T02:01:35.300Z,945.2
2017-03-27T02:02:43.471Z,945.1
2017-03-27T02:03:51.425Z,945.1
2017-03-27T02:04:59.460Z,945.2
2017-03-27T02:06:07.554Z,945.1
2017-03-27T02:07:15.639Z,945.2
2017-03-27T02:08:23.763Z,945.1
2017-03-27T02:09:31.929Z,945.1
2017-03-27T02:10:39.899Z,945.2
2017-03-27T02:11:47.984Z,945.1
2017-03-27T02:12:56.074Z,945.1
2017-03-27T02:14:04.160Z,945.1
2017-03-27T02:15:12.752Z,945.1
2017-03-27T02:16:20.335Z,945.1
2017-03-27T02:17:28.416Z,945.1
2017-03-27T02:18:36.551Z,945.1
2017-03-27T02:19:44.591Z,945.2
2017-03-27T02:20:52.733Z,945.2
2017-03-27T02:22:00.770Z,945.1
2017-03-27T02:23:08.857Z,945.1
2017-03-27T02:24:17.091Z,945.1
2017-03-27T02:25:25.145Z,945.2
2017-03-27T02:26:33.619Z,945.2
2017-03-27T02:27:41.207Z,945.2
2017-03-27T02:28:49.290Z,945.2
2017-03-27T02:29:57.380Z,945.1
2017-03-27T02:31:05.469Z,945.1
2017-03-27T02:32:13.610Z,945.1
2017-03-27T02:33:21.650Z,945.1
2017-03-27T02:34:29.808Z,945.2
2017-03-27T02:35:37.872Z,945.2
2017-03-27T02:36:45.896Z,945.2
2017-03-27T02:37:54.042Z,945.2
2017-03-27T02:39:02.072Z,945.2
2017-03-27T02:40:10.167Z,945.1
2017-03-27T02:41:18.748Z,945.1
2017-03-27T02:42:26.329Z,945.1
2017-03-27T02:43:34.475Z,945.1
2017-03-27T02:44:42.500Z,945.1
2017-03-27T02:45:50.590Z,945.1
2017-03-27T02:46:58.682Z,945.1
2017-03-27T02:48:06.755Z,945.1
2017-03-27T02:49:14.903Z,945.1
2017-03-27T02:50:22.931Z,945.1
2017-03-27T02:51:31.016Z,945.1
2017-03-27T02:52:39.100Z,945.1
2017-03-27T02:53:47.196Z,945.1
2017-03-27T02:54:55.338Z,945.0
2017-03-27T02:56:03.387Z,945.1
2017-03-27T02:57:11.965Z,945.1
2017-03-27T02:58:19.547Z,945.0
2017-03-27T02:59:27.630Z,945.1
2017-03-27T03:00:35.962Z,945.2
2017-03-27T03:01:43.992Z,945.1
2017-03-27T03:02:51.896Z,945.1
2017-03-27T03:03:59.978Z,945.1
2017-03-27T03:05:08.068Z,945.1
2017-03-27T03:06:16.207Z,945.1
2017-03-27T03:07:24.262Z,945.1
2017-03-27T03:08:32.316Z,945.1
2017-03-27T03:09:40.408Z,945.1
2017-03-27T03:10:48.497Z,945.1
2017-03-27T03:11:57.255Z,945.1
2017-03-27T03:13:04.725Z,945.1
2017-03-27T03:14:12.761Z,945.1
2017-03-27T03:15:20.842Z,945.0
2017-03-27T03:16:28.927Z,945.0
2017-03-27T03:17:37.115Z,945.1
2017-03-27T03:18:45.147Z,945.0
2017-03-27T03:19:53.185Z,945.0
2017-03-27T03:21:01.285Z,945.0
2017-03-27T03:22:09.546Z,945.1
2017-03-27T03:23:17.644Z,945.1
2017-03-27T03:24:25.541Z,945.0
2017-03-27T03:25:33.626Z,945.1
2017-03-27T03:26:41.712Z,945.1
2017-03-27T03:27:49.795Z,945.0
2017-03-27T03:28:58.432Z,945.0
2017-03-27T03:30:05.969Z,945.0
2017-03-27T03:31:14.055Z,945.0
2017-03-27T03:32:22.139Z,945.0
2017-03-27T03:33:30.224Z,945.0
2017-03-27T03:34:38.363Z,945.0
2017-03-27T03:35:46.394Z,945.0
2017-03-27T03:36:54.484Z,945.0
2017-03-27T03:38:02.567Z,945.0
2017-03-27T03:39:10.674Z,945.1
2017-03-27T03:40:18.820Z,945.0
2017-03-27T03:41:26.833Z,945.1
2017-03-27T03:42:34.913Z,945.0
2017-03-27T03:43:42.996Z,945.0
2017-03-27T03:44:51.771Z,945.0
2017-03-27T03:45:59.231Z,945.0
2017-03-27T03:47:07.261Z,944.9
2017-03-27T03:48:15.352Z,945.0
2017-03-27T03:49:23.431Z,945.0
2017-03-27T03:50:31.515Z,945.0
2017-03-27T03:51:39.655Z,945.0
2017-03-27T03:52:47.696Z,945.1
2017-03-27T03:53:55.783Z,945.1
2017-03-27T03:55:03.966Z,945.1
2017-03-27T03:56:11.956Z,945.1
2017-03-27T03:57:20.096Z,945.0
2017-03-27T03:58:28.122Z,945.1
2017-03-27T03:59:36.205Z,945.1
2017-03-27T04:00:44.800Z,945.1
2017-03-27T04:01:52.380Z,945.1
2017-03-27T04:03:00.522Z,945.1
2017-03-27T04:04:08.554Z,945.1
2017-03-27T04:05:16.642Z,945.1
2017-03-27T04:06:24.764Z,945.1
2017-03-27T04:07:32.806Z,945.1
2017-03-27T04:08:40.954Z,945.1
2017-03-27T04:09:48.980Z,945.1
2017-03-27T04:10:57.220Z,945.1
2017-03-27T04:12:05.150Z,945.2
2017-03-27T04:13:13.241Z,945.1
2017-03-27T04:14:21.830Z,945.1
2017-03-27T04:15:29.408Z,945.1
2017-03-27T04:16:37.556Z,945.1
2017-03-27T04:17:45.589Z,945.1
2017-03-27T04:18:53.668Z,945.1
2017-03-27T04:20:01.808Z,945.1
2017-03-27T04:21:10.030Z,945.1
2017-03-27T04:22:18.111Z,945.1
2017-03-27T04:23:26.010Z,945.1
2017-03-27T04:24:34.092Z,945.1
2017-03-27T04:25:42.237Z,945.1
2017-03-27T04:26:50.262Z,945.1
2017-03-27T04:27:58.361Z,945.1
2017-03-27T04:29:06.444Z,945.1
2017-03-27T04:30:14.518Z,945.1
2017-03-27T04:31:23.108Z,945.1
2017-03-27T04:32:30.742Z,945.1
2017-03-27T04:33:38.775Z,945.1
2017-03-27T04:34:46.858Z,945.1
2017-03-27T04:35:54.945Z,945.1
2017-03-27T04:37:03.085Z,945.1
2017-03-27T04:38:11.212Z,945.1
2017-03-27T04:39:19.280Z,945.1
2017-03-27T04:40:27.291Z,945.1
2017-03-27T04:41:35.377Z,945.1
2017-03-27T04:42:43.515Z,945.1
2017-03-27T04:43:51.550Z,945.1
2017-03-27T04:44:59.636Z,945.1
2017-03-27T04:46:07.717Z,945.1
2017-03-27T04:47:15.805Z,945.1
2017-03-27T04:48:24.010Z,945.1
2017-03-27T04:49:32.036Z,945.1
2017-03-27T04:50:40.061Z,945.1
2017-03-27T04:51:48.149Z,945.2
2017-03-27T04:52:56.435Z,945.2
2017-03-27T04:54:04.564Z,945.1
2017-03-27T04:55:12.421Z,945.1
2017-03-27T04:56:20.484Z,945.1
2017-03-27T04:57:28.573Z,945.2
2017-03-27T04:58:36.827Z,945.1
2017-03-27T04:59:45.256Z,945.1
2017-03-27T05:00:52.838Z,945.2
2017-03-27T05:02:00.908Z,945.2
2017-03-27T05:03:08.996Z,945.2
2017-03-27T05:04:17.204Z,945.2
2017-03-27T05:05:25.831Z,945.1
2017-03-27T05:06:33.246Z,945.1
2017-03-27T05:07:41.337Z,945.2
2017-03-27T05:08:49.417Z,945.2
2017-03-27T05:09:57.499Z,945.2
2017-03-27T05:11:05.646Z,945.2
2017-03-27T05:12:13.674Z,945.2
2017-03-27T05:13:21.757Z,945.2
2017-03-27T05:14:29.837Z,945.2
2017-03-27T05:15:38.609Z,945.2
2017-03-27T05:16:46.487Z,945.2
2017-03-27T05:17:54.161Z,945.2
2017-03-27T05:19:02.183Z,945.2
2017-03-27T05:20:10.325Z,945.3
2017-03-27T05:21:18.420Z,945.3
2017-03-27T05:22:26.841Z,945.4
2017-03-27T05:23:34.522Z,945.3
2017-03-27T05:24:42.608Z,945.3
2017-03-27T05:25:50.714Z,945.4
2017-03-27T05:26:58.865Z,945.4
2017-03-27T05:28:07.372Z,945.4
2017-03-27T05:29:14.953Z,945.4
2017-03-27T05:30:23.036Z,945.4
2017-03-27T05:31:31.129Z,945.4
2017-03-27T05:32:39.214Z,945.4
2017-03-27T05:33:47.352Z,945.4
2017-03-27T05:34:55.387Z,945.4
2017-03-27T05:36:03.524Z,945.4
2017-03-27T05:37:11.559Z,945.4
2017-03-27T05:38:19.742Z,945.4
2017-03-27T05:39:27.782Z,945.5
2017-03-27T05:40:35.820Z,945.5
2017-03-27T05:41:43.902Z,945.5
2017-03-27T05:42:51.993Z,945.5
2017-03-27T05:44:00.080Z,945.5
2017-03-27T05:45:08.221Z,945.5
2017-03-27T05:46:16.256Z,945.5
2017-03-27T05:47:24.337Z,945.5
2017-03-27T05:48:32.418Z,945.5
2017-03-27T05:49:40.502Z,945.5
2017-03-27T05:50:49.193Z,945.5
2017-03-27T05:51:57.000Z,945.5
2017-03-27T05:53:04.902Z,945.4
2017-03-27T05:54:12.850Z,945.5
2017-03-27T05:55:20.934Z,945.5
2017-03-27T05:56:29.080Z,945.5
2017-03-27T05:57:37.107Z,945.5
2017-03-27T05:58:45.287Z,945.5
2017-03-27T05:59:53.817Z,945.5
2017-03-27T06:01:01.580Z,945.5
2017-03-27T06:02:11.653Z,945.5
2017-03-27T06:03:17.839Z,945.6
2017-03-27T06:04:25.659Z,945.6
2017-03-27T06:05:33.757Z,945.5
2017-03-27T06:06:41.794Z,945.6
2017-03-27T06:07:51.958Z,945.6
2017-03-27T06:08:58.116Z,945.5
2017-03-27T06:10:06.258Z,945.6
2017-03-27T06:11:14.142Z,945.6
2017-03-27T06:12:22.219Z,945.5
2017-03-27T06:13:30.355Z,945.4
2017-03-27T06:14:38.384Z,945.4
2017-03-27T06:15:47.090Z,945.5
2017-03-27T06:16:55.002Z,945.5
2017-03-27T06:18:02.638Z,945.5
2017-03-27T06:19:10.777Z,945.5
2017-03-27T06:20:18.973Z,945.5
2017-03-27T06:21:27.034Z,945.6
2017-03-27T06:22:34.978Z,945.6
2017-03-27T06:23:43.561Z,945.5
2017-03-27T06:24:51.198Z,945.5
2017-03-27T06:25:59.227Z,945.6
2017-03-27T06:27:07.313Z,945.5
2017-03-27T06:28:15.395Z,945.6
2017-03-27T06:29:23.476Z,945.6
2017-03-27T06:30:31.620Z,945.6
2017-03-27T06:31:39.758Z,945.5
2017-03-27T06:32:47.730Z,945.6
2017-03-27T06:33:55.820Z,945.6
2017-03-27T06:35:03.904Z,945.6
2017-03-27T06:36:12.041Z,945.6
2017-03-27T06:37:20.070Z,945.7
2017-03-27T06:38:28.159Z,945.7
2017-03-27T06:39:36.746Z,945.7
2017-03-27T06:40:44.325Z,945.7
2017-03-27T06:41:52.537Z,945.7
2017-03-27T06:43:00.501Z,945.7
2017-03-27T06:44:08.586Z,945.7
2017-03-27T06:45:16.671Z,945.7
2017-03-27T06:46:24.754Z,945.7
2017-03-27T06:47:33.050Z,945.6
2017-03-27T06:48:40.920Z,945.7
2017-03-27T06:49:49.011Z,945.6
2017-03-27T06:50:57.093Z,945.6
2017-03-27T06:52:05.176Z,945.7
2017-03-27T06:53:13.793Z,945.7
2017-03-27T06:54:21.354Z,945.8
2017-03-27T06:55:29.580Z,945.8
2017-03-27T06:56:37.517Z,945.8
2017-03-27T06:57:45.609Z,945.8
2017-03-27T06:58:53.747Z,945.8
2017-03-27T07:00:01.773Z,945.8
2017-03-27T07:01:09.860Z,945.8
2017-03-27T07:02:17.944Z,945.9
2017-03-27T07:03:26.031Z,945.8
2017-03-27T07:04:34.677Z,945.8
2017-03-27T07:05:42.199Z,945.9
2017-03-27T07:06:50.285Z,946.0
2017-03-27T07:07:58.511Z,946.0
2017-03-27T07:09:06.453Z,946.0
2017-03-27T07:10:14.597Z,946.0
2017-03-27T07:11:23.129Z,945.9
2017-03-27T07:12:30.708Z,945.9
2017-03-27T07:13:38.796Z,945.9
2017-03-27T07:14:46.984Z,945.8
2017-03-27T07:15:55.023Z,945.9
2017-03-27T07:17:03.053Z,945.9
2017-03-27T07:18:11.142Z,945.9
2017-03-27T07:19:19.220Z,945.9
2017-03-27T07:20:27.307Z,945.9
2017-03-27T07:21:35.445Z,945.9
2017-03-27T07:22:43.476Z,945.9
2017-03-27T07:23:51.559Z,946.0
2017-03-27T07:24:59.646Z,946.0
2017-03-27T07:26:07.828Z,946.0
2017-03-27T07:27:16.321Z,946.0
2017-03-27T07:28:23.898Z,946.0
2017-03-27T07:29:31.995Z,946.0
2017-03-27T07:30:40.073Z,946.0
2017-03-27T07:31:48.152Z,946.0
2017-03-27T07:32:56.299Z,946.1
2017-03-27T07:34:04.328Z,946.0
2017-03-27T07:35:12.411Z,946.0
2017-03-27T07:36:20.495Z,946.0
2017-03-27T07:37:28.585Z,946.0
2017-03-27T07:38:36.729Z,946.1
2017-03-27T07:39:44.753Z,946.1
2017-03-27T07:40:52.835Z,946.1
2017-03-27T07:42:00.927Z,946.0
2017-03-27T07:43:09.538Z,946.0
2017-03-27T07:44:17.152Z,946.1
2017-03-27T07:45:25.184Z,946.1
2017-03-27T07:46:33.276Z,946.1
2017-03-27T07:47:41.374Z,946.0
2017-03-27T07:48:49.450Z,946.0
2017-03-27T07:49:57.643Z,946.0
2017-03-27T07:51:05.610Z,946.0
2017-03-27T07:52:13.856Z,946.0
2017-03-27T07:53:21.777Z,946.0
2017-03-27T07:54:29.862Z,946.0
2017-03-27T07:55:38.448Z,946.0
2017-03-27T07:56:46.030Z,946.0
2017-03-27T07:57:54.115Z,946.0
2017-03-27T07:59:02.252Z,946.0
2017-03-27T08:00:10.294Z,946.0
2017-03-27T08:01:18.424Z,945.9
2017-03-27T08:02:26.462Z,945.9
2017-03-27T08:03:34.537Z,946.0
2017-03-27T08:04:42.623Z,946.0
2017-03-27T08:05:50.706Z,946.0
2017-03-27T08:06:59.477Z,946.0
2017-03-27T08:08:06.878Z,946.0
2017-03-27T08:09:14.965Z,946.0
2017-03-27T08:10:23.045Z,946.0
2017-03-27T08:11:31.129Z,946.0
2017-03-27T08:12:39.340Z,946.0
2017-03-27T08:13:47.456Z,946.0
2017-03-27T08:14:55.884Z,946.0
2017-03-27T08:16:03.469Z,946.0
2017-03-27T08:17:11.553Z,946.0
2017-03-27T08:18:19.760Z,946.0
2017-03-27T08:19:27.719Z,946.0
2017-03-27T08:20:35.807Z,946.0
2017-03-27T08:21:43.893Z,946.0
2017-03-27T08:22:51.975Z,946.0
2017-03-27T08:24:00.185Z,946.0
2017-03-27T08:25:08.310Z,946.0
2017-03-27T08:26:16.228Z,946.1
2017-03-27T08:27:24.314Z,946.1
2017-03-27T08:28:32.401Z,946.1
2017-03-27T08:29:40.990Z,946.1
2017-03-27T08:30:48.694Z,946.1
2017-03-27T08:31:56.656Z,946.1
2017-03-27T08:33:04.740Z,946.1
2017-03-27T08:34:12.826Z,946.1
2017-03-27T08:35:20.968Z,946.2
2017-03-27T08:36:29.003Z,946.1
2017-03-27T08:37:37.087Z,946.2
2017-03-27T08:38:45.168Z,946.1
2017-03-27T08:39:53.263Z,946.2
2017-03-27T08:41:01.859Z,946.1
2017-03-27T08:42:09.429Z,946.2
2017-03-27T08:43:17.516Z,946.2
2017-03-27T08:44:25.601Z,946.2
2017-03-27T08:45:33.686Z,946.2
2017-03-27T08:46:42.036Z,946.2
2017-03-27T08:47:49.850Z,946.2
2017-03-27T08:48:57.937Z,946.2
2017-03-27T08:50:06.040Z,946.2
2017-03-27T08:51:14.106Z,946.2
2017-03-27T08:52:22.269Z,946.2
2017-03-27T08:53:30.277Z,946.2
2017-03-27T08:54:38.358Z,946.2
2017-03-27T08:55:46.445Z,946.2
2017-03-27T08:56:54.686Z,946.2
2017-03-27T08:58:03.251Z,946.1
2017-03-27T08:59:10.701Z,946.2
2017-03-27T09:00:18.783Z,946.2
2017-03-27T09:01:26.864Z,946.2
2017-03-27T09:02:35.004Z,946.2
2017-03-27T09:03:43.544Z,946.2
2017-03-27T09:04:51.132Z,946.2
2017-03-27T09:05:59.209Z,946.2
2017-03-27T09:07:07.294Z,946.2
2017-03-27T09:08:15.454Z,946.2
2017-03-27T09:09:23.594Z,946.2
2017-03-27T09:10:31.547Z,946.2
2017-03-27T09:11:39.632Z,946.2
2017-03-27T09:12:47.720Z,946.2
2017-03-27T09:13:55.808Z,946.2
2017-03-27T09:15:04.393Z,946.2
2017-03-27T09:16:11.971Z,946.2
2017-03-27T09:17:20.058Z,946.2
2017-03-27T09:18:28.272Z,946.2
2017-03-27T09:19:36.232Z,946.2
2017-03-27T09:20:44.384Z,946.2
2017-03-27T09:21:52.404Z,946.2
2017-03-27T09:23:00.684Z,946.2
2017-03-27T09:24:08.779Z,946.2
2017-03-27T09:25:16.661Z,946.2
2017-03-27T09:26:25.251Z,946.2
2017-03-27T09:27:32.838Z,946.2
2017-03-27T09:28:40.922Z,946.3
2017-03-27T09:29:49.070Z,946.3
2017-03-27T09:30:57.090Z,946.2
2017-03-27T09:32:05.231Z,946.2
2017-03-27T09:33:13.268Z,946.2
2017-03-27T09:34:21.410Z,946.3
2017-03-27T09:35:29.441Z,946.3
2017-03-27T09:36:37.520Z,946.2
2017-03-27T09:37:46.114Z,946.2
2017-03-27T09:38:53.702Z,946.2
2017-03-27T09:40:01.817Z,946.2
2017-03-27T09:41:09.910Z,946.2
2017-03-27T09:42:17.950Z,946.2
2017-03-27T09:43:26.543Z,946.2
2017-03-27T09:44:34.124Z,946.2
2017-03-27T09:45:42.212Z,946.2
2017-03-27T09:46:50.299Z,946.3
2017-03-27T09:47:58.391Z,946.2
2017-03-27T09:49:06.534Z,946.2
2017-03-27T09:50:15.064Z,946.2
2017-03-27T09:51:22.714Z,946.2
2017-03-27T09:52:30.731Z,946.2
2017-03-27T09:53:38.812Z,946.2
2017-03-27T09:54:46.962Z,946.2
2017-03-27T09:55:54.989Z,946.2
2017-03-27T09:57:03.069Z,946.2
2017-03-27T09:58:11.162Z,946.2
2017-03-27T09:59:19.244Z,946.2
2017-03-27T10:00:27.383Z,946.2
2017-03-27T10:01:35.418Z,946.2
2017-03-27T10:02:43.499Z,946.2
2017-03-27T10:03:51.592Z,946.2
2017-03-27T10:04:59.676Z,946.2
2017-03-27T10:06:07.881Z,946.2
2017-03-27T10:07:16.045Z,946.1
2017-03-27T10:08:23.930Z,946.2
2017-03-27T10:09:32.033Z,946.2
2017-03-27T10:10:40.101Z,946.1
2017-03-27T10:11:48.240Z,946.1
2017-03-27T10:12:56.326Z,946.2
2017-03-27T10:14:04.353Z,946.2
2017-03-27T10:15:12.436Z,946.2
2017-03-27T10:16:20.526Z,946.3
2017-03-27T10:17:29.305Z,946.2
2017-03-27T10:18:36.697Z,946.3
2017-03-27T10:19:44.796Z,946.2
2017-03-27T10:20:52.872Z,946.2
2017-03-27T10:22:01.026Z,946.2
2017-03-27T10:23:09.104Z,946.2
2017-03-27T10:24:17.130Z,946.2
2017-03-27T10:25:25.216Z,946.3
2017-03-27T10:26:33.306Z,946.3
2017-03-27T10:27:41.397Z,946.3
2017-03-27T10:28:49.550Z,946.3
2017-03-27T10:29:57.569Z,946.4
2017-03-27T10:31:05.656Z,946.4
2017-03-27T10:32:13.740Z,946.4
2017-03-27T10:33:21.824Z,946.4
2017-03-27T10:34:29.969Z,946.3
2017-03-27T10:35:37.995Z,946.3
2017-03-27T10:36:46.081Z,946.4
2017-03-27T10:37:54.677Z,946.4
2017-03-27T10:39:02.390Z,946.4
2017-03-27T10:40:10.533Z,946.4
2017-03-27T10:41:18.430Z,946.4
2017-03-27T10:42:26.519Z,946.4
2017-03-27T10:43:34.611Z,946.4
2017-03-27T10:44:42.695Z,946.4
2017-03-27T10:45:50.839Z,946.3
2017-03-27T10:46:58.868Z,946.3
2017-03-27T10:48:06.946Z,946.3
2017-03-27T10:49:15.035Z,946.3
2017-03-27T10:50:23.280Z,946.3
2017-03-27T10:51:31.262Z,946.2
2017-03-27T10:52:39.287Z,946.3
2017-03-27T10:53:47.884Z,946.3
2017-03-27T10:54:55.468Z,946.2
2017-03-27T10:56:03.551Z,946.2
2017-03-27T10:57:11.691Z,946.2
2017-03-27T10:58:19.723Z,946.2
2017-03-27T10:59:27.802Z,946.2
2017-03-27T11:00:35.885Z,946.2
2017-03-27T11:01:43.974Z,946.2
2017-03-27T11:02:52.117Z,946.2
2017-03-27T11:04:00.143Z,946.2
2017-03-27T11:05:08.232Z,946.2
2017-03-27T11:06:16.321Z,946.2
2017-03-27T11:07:24.415Z,946.2
2017-03-27T11:08:33.001Z,946.2
2017-03-27T11:09:40.637Z,946.2
2017-03-27T11:10:48.669Z,946.1
2017-03-27T11:11:56.930Z,946.2
2017-03-27T11:13:04.847Z,946.1
2017-03-27T11:14:13.181Z,946.1
2017-03-27T11:15:21.017Z,946.1
2017-03-27T11:16:29.102Z,946.1
2017-03-27T11:17:37.227Z,946.1
2017-03-27T11:18:45.299Z,946.1
2017-03-27T11:19:53.419Z,946.1
2017-03-27T11:21:01.455Z,946.1
2017-03-27T11:22:09.700Z,946.1
2017-03-27T11:23:17.767Z,946.1
2017-03-27T11:24:25.711Z,946.1
2017-03-27T11:25:34.303Z,946.1
2017-03-27T11:26:41.890Z,946.1
2017-03-27T11:27:49.967Z,946.1
2017-03-27T11:28:58.057Z,946.1
2017-03-27T11:30:06.143Z,946.1
2017-03-27T11:31:14.288Z,946.1
2017-03-27T11:32:22.307Z,946.1
2017-03-27T11:33:30.462Z,946.1
2017-03-27T11:34:38.482Z,946.2
2017-03-27T11:35:46.564Z,946.1
2017-03-27T11:36:55.157Z,946.2
2017-03-27T11:38:02.738Z,946.2
2017-03-27T11:39:10.842Z,946.2
2017-03-27T11:40:18.918Z,946.2
2017-03-27T11:41:27.047Z,946.2
2017-03-27T11:42:35.135Z,946.2
2017-03-27T11:43:43.217Z,946.2
2017-03-27T11:44:51.387Z,946.2
2017-03-27T11:45:59.335Z,946.2
2017-03-27T11:47:07.423Z,946.2
2017-03-27T11:48:16.012Z,946.2
2017-03-27T11:49:23.612Z,946.2
2017-03-27T11:50:31.688Z,946.3
2017-03-27T11:51:39.769Z,946.2
2017-03-27T11:52:47.866Z,946.2
2017-03-27T11:53:56.007Z,946.3
2017-03-27T11:55:04.165Z,946.2
2017-03-27T11:56:12.119Z,946.2
2017-03-27T11:57:20.706Z,946.2
2017-03-27T11:58:28.295Z,946.2
2017-03-27T11:59:36.438Z,946.2
2017-03-27T12:00:44.568Z,946.2
2017-03-27T12:01:52.560Z,946.2
2017-03-27T12:03:00.643Z,946.2
2017-03-27T12:04:08.732Z,946.2
2017-03-27T12:05:16.878Z,946.2
2017-03-27T12:06:25.076Z,946.2
2017-03-27T12:07:32.987Z,946.2
2017-03-27T12:08:41.075Z,946.2
2017-03-27T12:09:49.167Z,946.2
2017-03-27T12:10:57.250Z,946.2
2017-03-27T12:12:05.346Z,946.2
2017-03-27T12:13:13.556Z,946.2
2017-03-27T12:14:21.504Z,946.1
2017-03-27T12:15:29.644Z,946.2
2017-03-27T12:16:37.848Z,946.1
2017-03-27T12:17:45.832Z,946.2
2017-03-27T12:18:53.851Z,946.1
2017-03-27T12:20:01.939Z,946.1
2017-03-27T12:21:10.079Z,946.1
2017-03-27T12:22:18.106Z,946.1
2017-03-27T12:23:26.190Z,946.1
2017-03-27T12:24:34.280Z,946.1
2017-03-27T12:25:42.361Z,946.1
2017-03-27T12:26:50.500Z,946.1
2017-03-27T12:27:58.546Z,946.1
2017-03-27T12:29:06.675Z,946.0
2017-03-27T12:30:14.706Z,946.1
2017-03-27T12:31:22.796Z,946.1
2017-03-27T12:32:31.382Z,946.1
2017-03-27T12:33:39.157Z,946.1
2017-03-27T12:34:47.155Z,946.1
2017-03-27T12:35:55.268Z,946.0
2017-03-27T12:37:03.264Z,946.0
2017-03-27T12:38:11.628Z,946.0
2017-03-27T12:39:19.694Z,946.0
2017-03-27T12:40:27.712Z,946.0
2017-03-27T12:41:35.781Z,946.0
2017-03-27T12:42:43.834Z,946.0
2017-03-27T12:43:52.265Z,946.0
2017-03-27T12:45:00.190Z,946.0
2017-03-27T12:46:07.928Z,945.9
2017-03-27T12:47:16.061Z,945.9
2017-03-27T12:48:24.117Z,945.9
2017-03-27T12:49:32.377Z,945.9
2017-03-27T12:50:40.389Z,945.9
2017-03-27T12:51:48.418Z,945.9
2017-03-27T12:52:56.575Z,945.9
2017-03-27T12:54:04.943Z,945.9
2017-03-27T12:55:12.669Z,945.9
2017-03-27T12:56:20.693Z,945.9
2017-03-27T12:57:29.018Z,945.9
2017-03-27T12:58:36.919Z,945.9
2017-03-27T12:59:45.256Z,945.9
2017-03-27T13:00:53.179Z,945.9
2017-03-27T13:02:01.152Z,945.9
2017-03-27T13:03:09.199Z,945.9
2017-03-27T13:04:17.417Z,945.9
2017-03-27T13:05:25.425Z,945.9
2017-03-27T13:06:33.951Z,945.9
2017-03-27T13:07:41.798Z,945.9
2017-03-27T13:08:49.645Z,945.9
2017-03-27T13:09:57.793Z,945.9
2017-03-27T13:11:05.952Z,945.9
2017-03-27T13:12:13.952Z,945.9
2017-03-27T13:13:21.948Z,945.9
2017-03-27T13:14:30.301Z,945.9
2017-03-27T13:15:38.426Z,945.8
2017-03-27T13:16:46.547Z,945.9
2017-03-27T13:17:54.462Z,945.9
2017-03-27T13:19:02.455Z,945.9
2017-03-27T13:20:10.583Z,945.9
2017-03-27T13:21:18.591Z,945.9
2017-03-27T13:22:26.852Z,945.8
2017-03-27T13:23:34.984Z,945.8
2017-03-27T13:24:42.980Z,945.8
2017-03-27T13:25:51.122Z,945.9
2017-03-27T13:26:59.292Z,945.9
2017-03-27T13:28:07.254Z,945.8
2017-03-27T13:29:15.475Z,945.8
2017-03-27T13:30:23.432Z,945.8
2017-03-27T13:31:31.360Z,945.8
2017-03-27T13:32:39.650Z,945.8
2017-03-27T13:33:47.667Z,945.8
2017-03-27T13:34:56.229Z,945.8
2017-03-27T13:36:03.843Z,945.8
2017-03-27T13:37:12.037Z,945.8
2017-03-27T13:38:20.175Z,945.8
2017-03-27T13:39:28.086Z,945.8
2017-03-27T13:40:36.143Z,945.8
2017-03-27T13:41:44.145Z,945.8
2017-03-27T13:42:52.262Z,945.8
2017-03-27T13:44:00.340Z,945.8
2017-03-27T13:45:08.408Z,945.7
2017-03-27T13:46:16.691Z,945.7
2017-03-27T13:47:24.718Z,945.7
2017-03-27T13:48:32.960Z,945.6
2017-03-27T13:49:40.860Z,945.7
2017-03-27T13:50:49.015Z,945.7
2017-03-27T13:51:57.170Z,945.7
2017-03-27T13:53:05.062Z,945.6
2017-03-27T13:54:13.102Z,945.7
2017-03-27T13:55:21.264Z,945.6
2017-03-27T13:56:29.434Z,945.6
2017-03-27T13:57:37.560Z,945.7
2017-03-27T13:58:45.579Z,945.7
2017-03-27T13:59:53.696Z,945.7
2017-03-27T14:01:01.546Z,945.7
2017-03-27T14:02:09.795Z,945.7
2017-03-27T14:03:17.937Z,945.7
2017-03-27T14:04:26.055Z,945.7
2017-03-27T14:05:34.027Z,945.6
2017-03-27T14:06:42.114Z,945.6
2017-03-27T14:07:50.147Z,945.6
2017-03-27T14:08:58.432Z,945.6
2017-03-27T14:10:06.333Z,945.7
2017-03-27T14:11:14.316Z,945.6
2017-03-27T14:12:22.402Z,945.6
2017-03-27T14:13:30.486Z,945.6
2017-03-27T14:14:39.077Z,945.6
2017-03-27T14:15:46.660Z,945.6
2017-03-27T14:16:54.745Z,945.5
2017-03-27T14:18:02.836Z,945.6
2017-03-27T14:19:10.920Z,945.5
2017-03-27T14:20:19.206Z,945.5
2017-03-27T14:21:27.223Z,945.5
2017-03-27T14:22:35.176Z,945.5
2017-03-27T14:23:43.255Z,945.5
2017-03-27T14:24:51.341Z,945.6
2017-03-27T14:25:59.938Z,945.6
2017-03-27T14:27:07.511Z,945.5
2017-03-27T14:28:15.614Z,945.5
2017-03-27T14:29:23.677Z,945.6
2017-03-27T14:30:31.771Z,945.6
2017-03-27T14:31:40.083Z,945.5
2017-03-27T14:32:47.934Z,945.6
2017-03-27T14:33:56.022Z,945.5
2017-03-27T14:35:04.109Z,945.5